createdAt,value
2019-05-22T00:00:03.467Z,0.00
2019-05-22T00:01:03.497Z,0.00
2019-05-22T00:02:03.529Z,0.00
2019-05-22T00:03:03.814Z,0.00
2019-05-22T00:04:03.611Z,0.00
2019-05-22T00:06:03.879Z,0.00
2019-05-22T00:07:04.113Z,0.00
2019-05-22T00:08:03.734Z,0.00
2019-05-22T00:09:03.751Z,0.00
2019-05-22T00:10:03.977Z,0.00
2019-05-22T00:11:04.135Z,0.00
2019-05-22T00:12:04.037Z,0.00
2019-05-22T00:13:03.889Z,0.00
2019-05-22T00:14:03.923Z,0.00
2019-05-22T00:15:04.231Z,0.00
2019-05-22T00:16:05.600Z,0.00
2019-05-22T00:18:04.042Z,0.00
2019-05-22T00:19:04.076Z,0.00
2019-05-22T00:20:04.319Z,0.00
2019-05-22T00:21:04.145Z,0.00
2019-05-22T00:22:04.165Z,0.00
2019-05-22T00:24:04.630Z,0.00
2019-05-22T00:25:04.455Z,0.00
2019-05-22T00:31:04.451Z,0.00
2019-05-22T00:32:04.877Z,0.00
2019-05-22T00:36:05.197Z,0.00
2019-05-22T00:37:05.026Z,0.00
2019-05-22T00:38:08.778Z,0.00
2019-05-22T00:39:04.660Z,0.00
2019-05-22T00:40:04.741Z,0.00
2019-05-22T00:41:04.720Z,0.00
2019-05-22T00:42:04.752Z,0.00
2019-05-22T00:43:12.872Z,0.00
2019-05-22T00:44:04.812Z,0.00
2019-05-22T00:45:04.842Z,0.00
2019-05-22T00:46:04.873Z,0.00
2019-05-22T00:47:04.907Z,0.00
2019-05-22T00:48:04.945Z,0.00
2019-05-22T00:49:04.964Z,0.00
2019-05-22T00:50:04.995Z,0.00
2019-05-22T00:51:05.093Z,0.00
2019-05-22T00:52:05.106Z,0.00
2019-05-22T00:53:05.088Z,0.00
2019-05-22T00:54:05.116Z,0.00
2019-05-22T00:55:05.146Z,0.00
2019-05-22T00:56:05.178Z,0.00
2019-05-22T00:57:05.209Z,0.00
2019-05-22T00:58:05.237Z,0.00
2019-05-22T00:59:05.270Z,0.00
2019-05-22T01:00:05.354Z,0.00
2019-05-22T01:01:07.951Z,0.00
2019-05-22T01:02:05.360Z,0.00
2019-05-22T01:03:05.389Z,0.00
2019-05-22T01:04:05.420Z,0.00
2019-05-22T01:05:05.456Z,0.00
2019-05-22T01:06:05.482Z,0.00
2019-05-22T01:07:05.515Z,0.00
2019-05-22T01:08:05.541Z,0.00
2019-05-22T01:09:05.575Z,0.00
2019-05-22T01:10:06.347Z,0.00
2019-05-22T01:11:06.847Z,0.00
2019-05-22T01:12:05.663Z,0.00
2019-05-22T01:13:05.694Z,0.00
2019-05-22T01:14:08.347Z,0.00
2019-05-22T01:15:05.758Z,0.00
2019-05-22T01:16:05.784Z,0.00
2019-05-22T01:17:05.814Z,0.00
2019-05-22T01:18:05.847Z,0.00
2019-05-22T01:19:05.881Z,0.00
2019-05-22T01:20:05.907Z,0.00
2019-05-22T01:21:05.939Z,0.00
2019-05-22T01:22:05.967Z,0.00
2019-05-22T01:23:06.000Z,0.00
2019-05-22T01:24:06.030Z,0.00
2019-05-22T01:25:06.069Z,0.00
2019-05-22T01:26:06.102Z,0.00
2019-05-22T01:27:06.123Z,0.00
2019-05-22T01:28:06.152Z,0.00
2019-05-22T01:29:06.181Z,0.00
2019-05-22T01:30:06.213Z,0.00
2019-05-22T01:31:06.247Z,0.00
2019-05-22T01:32:06.481Z,0.00
2019-05-22T01:33:06.305Z,0.00
2019-05-22T01:34:06.336Z,0.00
2019-05-22T01:35:06.366Z,0.00
2019-05-22T01:36:06.395Z,0.00
2019-05-22T01:37:06.426Z,0.00
2019-05-22T01:38:06.459Z,0.00
2019-05-22T01:39:06.576Z,0.00
2019-05-22T01:41:06.548Z,0.00
2019-05-22T01:42:06.580Z,0.00
2019-05-22T01:43:06.611Z,0.00
2019-05-22T01:44:06.641Z,0.00
2019-05-22T01:45:07.042Z,0.00
2019-05-22T01:46:06.702Z,0.00
2019-05-22T01:47:06.786Z,0.00
2019-05-22T01:48:06.761Z,0.00
2019-05-22T01:49:06.792Z,0.00
2019-05-22T01:50:06.830Z,0.00
2019-05-22T01:51:06.857Z,0.00
2019-05-22T01:52:06.882Z,0.00
2019-05-22T01:53:06.915Z,0.00
2019-05-22T01:54:06.944Z,0.00
2019-05-22T01:55:06.975Z,0.00
2019-05-22T01:56:07.109Z,0.00
2019-05-22T01:57:07.035Z,0.00
2019-05-22T01:58:07.067Z,0.00
2019-05-22T01:59:07.096Z,0.00
2019-05-22T02:00:07.126Z,0.00
2019-05-22T02:01:07.157Z,0.00
2019-05-22T02:02:07.190Z,0.00
2019-05-22T02:03:07.218Z,0.00
2019-05-22T02:04:07.247Z,0.00
2019-05-22T02:05:07.279Z,0.00
2019-05-22T02:06:07.313Z,0.00
2019-05-22T02:07:07.343Z,0.00
2019-05-22T02:08:07.428Z,0.00
2019-05-22T02:09:07.399Z,0.00
2019-05-22T02:10:07.429Z,0.00
2019-05-22T02:11:07.662Z,0.00
2019-05-22T02:12:07.488Z,0.00
2019-05-22T02:13:07.522Z,0.00
2019-05-22T02:14:07.569Z,0.00
2019-05-22T02:15:07.586Z,0.00
2019-05-22T02:16:07.611Z,0.00
2019-05-22T02:17:07.642Z,0.00
2019-05-22T02:18:07.733Z,0.00
2019-05-22T02:19:07.703Z,0.00
2019-05-22T02:20:08.232Z,0.00
2019-05-22T02:21:07.763Z,0.00
2019-05-22T02:23:07.823Z,0.00
2019-05-22T02:24:07.853Z,0.00
2019-05-22T02:26:07.915Z,0.00
2019-05-22T02:27:07.953Z,0.00
2019-05-22T02:28:07.974Z,0.00
2019-05-22T02:29:08.004Z,0.00
2019-05-22T02:30:08.036Z,0.00
2019-05-22T02:31:08.066Z,0.00
2019-05-22T02:32:08.096Z,0.00
2019-05-22T02:33:08.131Z,0.00
2019-05-22T02:34:08.158Z,0.00
2019-05-22T02:35:08.188Z,0.00
2019-05-22T02:36:08.219Z,0.00
2019-05-22T02:37:09.903Z,0.00
2019-05-22T02:38:08.285Z,0.00
2019-05-22T02:39:08.316Z,0.00
2019-05-22T02:40:08.345Z,0.00
2019-05-22T02:41:08.370Z,0.00
2019-05-22T02:42:08.400Z,0.00
2019-05-22T02:43:08.429Z,0.00
2019-05-22T02:44:08.462Z,0.00
2019-05-22T02:46:08.522Z,0.00
2019-05-22T02:47:19.226Z,0.00
2019-05-22T02:48:08.580Z,0.00
2019-05-22T02:49:08.610Z,0.00
2019-05-22T02:50:08.642Z,0.00
2019-05-22T02:51:08.671Z,0.00
2019-05-22T02:52:08.702Z,0.00
2019-05-22T02:53:08.734Z,0.00
2019-05-22T02:54:08.766Z,0.00
2019-05-22T02:55:08.795Z,0.00
2019-05-22T02:58:08.883Z,0.00
2019-05-22T02:59:08.964Z,0.00
2019-05-22T03:00:08.941Z,0.00
2019-05-22T03:01:08.972Z,0.00
2019-05-22T03:02:09.004Z,0.00
2019-05-22T03:03:09.057Z,0.00
2019-05-22T03:04:09.065Z,0.00
2019-05-22T03:06:09.133Z,0.00
2019-05-22T03:07:09.383Z,0.00
2019-05-22T03:08:09.410Z,0.00
2019-05-22T03:09:09.930Z,4.00
2019-05-22T03:11:09.276Z,4.00
2019-05-22T03:12:09.329Z,4.00
2019-05-22T03:13:09.344Z,4.00
2019-05-22T03:14:09.425Z,4.00
2019-05-22T03:15:09.396Z,4.00
2019-05-22T03:16:09.426Z,8.00
2019-05-22T03:17:09.456Z,4.00
2019-05-22T03:18:09.487Z,8.00
2019-05-22T03:19:09.572Z,8.00
2019-05-22T03:20:09.545Z,8.00
2019-05-22T03:21:09.576Z,12.00
2019-05-22T03:22:09.607Z,12.00
2019-05-22T03:23:09.638Z,16.00
2019-05-22T03:24:09.666Z,16.00
2019-05-22T03:25:09.699Z,24.00
2019-05-22T03:26:09.734Z,28.00
2019-05-22T03:27:09.758Z,28.00
2019-05-22T03:28:09.787Z,32.00
2019-05-22T03:29:09.819Z,40.00
2019-05-22T03:30:09.969Z,44.00
2019-05-22T03:31:09.894Z,48.00
2019-05-22T03:32:10.134Z,52.00
2019-05-22T03:33:09.988Z,56.00
2019-05-22T03:34:09.968Z,64.00
2019-05-22T03:35:10.006Z,68.00
2019-05-22T03:36:10.053Z,76.00
2019-05-22T03:38:10.088Z,100.00
2019-05-22T03:39:10.119Z,112.00
2019-05-22T03:41:10.179Z,132.00
2019-05-22T03:43:10.239Z,168.00
2019-05-22T03:44:10.294Z,184.00
2019-05-22T03:45:10.317Z,196.00
2019-05-22T03:46:10.330Z,204.00
2019-05-22T03:47:10.363Z,216.00
2019-05-22T03:48:10.390Z,232.00
2019-05-22T03:49:28.217Z,248.00
2019-05-22T03:50:10.450Z,264.00
2019-05-22T03:51:10.478Z,288.00
2019-05-22T03:52:10.509Z,316.00
2019-05-22T03:53:10.539Z,344.00
2019-05-22T03:54:10.568Z,364.00
2019-05-22T03:55:10.599Z,384.00
2019-05-22T03:56:10.628Z,400.00
2019-05-22T03:57:10.663Z,424.00
2019-05-22T03:58:10.893Z,436.00
2019-05-22T03:59:10.720Z,452.00
2019-05-22T04:00:10.750Z,464.00
2019-05-22T04:02:10.809Z,492.00
2019-05-22T04:03:11.045Z,512.00
2019-05-22T04:04:10.875Z,528.00
2019-05-22T04:05:10.899Z,544.00
2019-05-22T04:06:10.929Z,564.00
2019-05-22T04:07:10.968Z,580.00
2019-05-22T04:08:10.990Z,608.00
2019-05-22T04:09:11.019Z,636.00
2019-05-22T04:10:11.050Z,660.00
2019-05-22T04:11:11.081Z,680.00
2019-05-22T04:13:11.141Z,724.00
2019-05-22T04:14:11.174Z,744.00
2019-05-22T04:15:11.201Z,748.00
2019-05-22T04:16:11.231Z,760.00
2019-05-22T04:17:11.259Z,792.00
2019-05-22T04:18:11.290Z,816.00
2019-05-22T04:19:11.320Z,852.00
2019-05-22T04:20:11.350Z,856.00
2019-05-22T04:21:11.381Z,848.00
2019-05-22T04:22:11.414Z,876.00
2019-05-22T04:23:11.441Z,932.00
2019-05-22T04:24:11.472Z,932.00
2019-05-22T04:25:11.500Z,912.00
2019-05-22T04:26:11.533Z,916.00
2019-05-22T04:27:11.563Z,912.00
2019-05-22T04:28:11.591Z,928.00
2019-05-22T04:29:11.621Z,948.00
2019-05-22T04:30:11.651Z,952.00
2019-05-22T04:31:11.682Z,972.00
2019-05-22T04:32:11.914Z,1012.00
2019-05-22T04:33:11.743Z,1028.00
2019-05-22T04:34:11.780Z,1024.00
2019-05-22T04:35:11.805Z,992.00
2019-05-22T04:36:11.832Z,944.00
2019-05-22T04:37:11.864Z,904.00
2019-05-22T04:38:11.894Z,896.00
2019-05-22T04:39:11.923Z,900.00
2019-05-22T04:41:11.985Z,892.00
2019-05-22T04:42:12.030Z,892.00
2019-05-22T04:43:12.043Z,888.00
2019-05-22T04:45:12.211Z,968.00
2019-05-22T04:46:12.135Z,1052.00
2019-05-22T04:47:12.165Z,1168.00
2019-05-22T04:48:12.202Z,1336.00
2019-05-22T04:49:12.230Z,1432.00
2019-05-22T04:50:12.255Z,1488.00
2019-05-22T04:51:12.287Z,1540.00
2019-05-22T04:52:12.432Z,1628.00
2019-05-22T04:53:12.371Z,1628.00
2019-05-22T04:54:12.378Z,1580.00
2019-05-22T04:55:12.411Z,1556.00
2019-05-22T04:56:12.643Z,1584.00
2019-05-22T04:57:12.670Z,1668.00
2019-05-22T04:58:45.732Z,1772.00
2019-05-22T04:59:12.730Z,1916.00
2019-05-22T05:00:12.580Z,2048.00
2019-05-22T05:01:12.610Z,2140.00
2019-05-22T05:02:12.650Z,2276.00
2019-05-22T05:12:27.241Z,3164.00
2019-05-22T05:15:27.132Z,3592.00
2019-05-22T05:16:27.156Z,3792.00
2019-05-22T05:17:27.467Z,4028.00
2019-05-22T05:18:27.195Z,4284.00
2019-05-22T05:19:27.225Z,4532.00
2019-05-22T05:20:27.259Z,4452.00
2019-05-22T05:21:27.286Z,4216.00
2019-05-22T05:22:27.317Z,3944.00
2019-05-22T05:23:27.347Z,3736.00
2019-05-22T05:24:27.378Z,3784.00
2019-05-22T05:25:27.418Z,3996.00
2019-05-22T05:26:27.460Z,4156.00
2019-05-22T05:27:27.490Z,4276.00
2019-05-22T05:28:27.908Z,4252.00
2019-05-22T05:29:28.977Z,4328.00
2019-05-22T05:30:27.560Z,4580.00
2019-05-22T05:31:27.590Z,4804.00
2019-05-22T05:32:27.622Z,4860.00
2019-05-22T05:33:27.652Z,5108.00
2019-05-22T05:34:27.910Z,5048.00
2019-05-22T05:35:27.712Z,5168.00
2019-05-22T05:36:27.770Z,5536.00
2019-05-22T05:37:27.775Z,5596.00
2019-05-22T05:38:27.813Z,5780.00
2019-05-22T05:39:27.843Z,6180.00
2019-05-22T05:40:27.962Z,6772.00
2019-05-22T05:41:27.899Z,6592.00
2019-05-22T05:42:27.927Z,6436.00
2019-05-22T05:43:27.978Z,6024.00
2019-05-22T05:44:27.992Z,5508.00
2019-05-22T05:45:28.020Z,5588.00
2019-05-22T05:46:28.052Z,5820.00
2019-05-22T05:47:28.081Z,6056.00
2019-05-22T05:48:28.112Z,6520.00
2019-05-22T05:49:28.143Z,6512.00
2019-05-22T05:50:38.761Z,6524.00
2019-05-22T05:51:28.203Z,6964.00
2019-05-22T05:52:28.236Z,7288.00
2019-05-22T05:53:28.266Z,7076.00
2019-05-22T05:54:30.305Z,7240.00
2019-05-22T05:55:28.329Z,7676.00
2019-05-22T05:56:28.361Z,7696.00
2019-05-22T05:57:28.491Z,7468.00
2019-05-22T05:58:28.832Z,7608.00
2019-05-22T05:59:28.478Z,7964.00
2019-05-22T06:00:28.626Z,8172.00
2019-05-22T06:01:28.746Z,7772.00
2019-05-22T06:03:28.603Z,8404.00
2019-05-22T06:04:34.750Z,8908.00
2019-05-22T06:06:29.004Z,8776.00
2019-05-22T06:07:28.909Z,8820.00
2019-05-22T06:09:28.767Z,10180.00
2019-05-22T06:10:28.803Z,9808.00
2019-05-22T06:11:28.830Z,9992.00
2019-05-22T06:12:28.867Z,10004.00
2019-05-22T06:13:28.896Z,10076.00
2019-05-22T06:14:28.927Z,9444.00
2019-05-22T06:15:28.958Z,9084.00
2019-05-22T06:16:28.991Z,8524.00
2019-05-22T06:17:29.023Z,8384.00
2019-05-22T06:18:29.056Z,8700.00
2019-05-22T06:19:29.088Z,8612.00
2019-05-22T06:20:29.118Z,8252.00
2019-05-22T06:21:29.151Z,8320.00
2019-05-22T06:22:29.183Z,7936.00
2019-05-22T06:23:29.215Z,7716.00
2019-05-22T06:25:29.305Z,8032.00
2019-05-22T06:26:29.333Z,7888.00
2019-05-22T06:27:29.371Z,7636.00
2019-05-22T06:28:29.602Z,7596.00
2019-05-22T06:29:29.877Z,7708.00
2019-05-22T06:55:31.742Z,8752.00
2019-05-22T07:01:41.932Z,9676.00
2019-05-22T07:12:21.554Z,9252.00
2019-05-22T07:13:21.587Z,9372.00
2019-05-22T07:43:35.209Z,11928.00
2019-05-22T08:03:00.769Z,10632.00
2019-05-22T08:04:01.202Z,8940.00
2019-05-22T08:05:00.831Z,9328.00
2019-05-22T08:06:01.267Z,8464.00
2019-05-22T08:08:01.543Z,9940.00
2019-05-22T08:12:01.674Z,9180.00
2019-05-22T08:13:01.498Z,9296.00
2019-05-22T08:18:23.973Z,9528.00
2019-05-22T08:19:23.887Z,9656.00
2019-05-22T08:20:23.917Z,9732.00
2019-05-22T08:21:24.103Z,9872.00
2019-05-22T08:22:23.984Z,10132.00
2019-05-22T08:23:24.020Z,10452.00
2019-05-22T08:24:24.052Z,10452.00
2019-05-22T08:25:24.085Z,10604.00
2019-05-22T08:26:24.120Z,11604.00
2019-05-22T08:27:24.152Z,12832.00
2019-05-22T08:28:24.185Z,13272.00
2019-05-22T08:29:24.274Z,11600.00
2019-05-22T08:30:24.255Z,8608.00
2019-05-22T08:31:24.678Z,10952.00
2019-05-22T08:33:25.091Z,8948.00
2019-05-22T08:34:24.418Z,8016.00
2019-05-22T08:35:25.386Z,7412.00
2019-05-22T08:36:24.680Z,7264.00
2019-05-22T08:39:24.801Z,10192.00
2019-05-22T08:44:25.163Z,10028.00
2019-05-22T08:45:24.789Z,10260.00
2019-05-22T08:46:25.128Z,10340.00
2019-05-22T08:47:27.893Z,10080.00
2019-05-22T08:48:24.865Z,9892.00
2019-05-22T08:50:24.957Z,8996.00
2019-05-22T08:51:25.193Z,9796.00
2019-05-22T08:53:25.473Z,10048.00
2019-05-22T08:55:25.540Z,10660.00
2019-05-22T08:56:25.579Z,11272.00
2019-05-22T08:57:25.175Z,10728.00
2019-05-22T08:58:25.215Z,7712.00
2019-05-22T08:59:25.268Z,10508.00
2019-05-22T09:02:25.371Z,10916.00
2019-05-22T09:03:25.406Z,11252.00
2019-05-22T09:04:25.419Z,11588.00
2019-05-22T09:05:25.475Z,11496.00
2019-05-22T09:06:25.495Z,11036.00
2019-05-22T09:07:25.526Z,10964.00
2019-05-22T09:08:25.619Z,11208.00
2019-05-22T09:09:25.594Z,11120.00
2019-05-22T09:10:26.299Z,11128.00
2019-05-22T09:11:25.660Z,11436.00
2019-05-22T09:12:25.695Z,11728.00
2019-05-22T09:13:25.729Z,12140.00
2019-05-22T09:14:25.766Z,12064.00
2019-05-22T09:15:25.800Z,11900.00
2019-05-22T09:16:25.837Z,11956.00
2019-05-22T09:17:25.873Z,12092.00
2019-05-22T09:18:25.904Z,12244.00
2019-05-22T09:19:25.943Z,12484.00
2019-05-22T09:20:26.304Z,12720.00
2019-05-22T09:22:39.569Z,12260.00
2019-05-22T09:23:26.105Z,12380.00
2019-05-22T09:26:26.223Z,13204.00
2019-05-22T09:27:26.258Z,13100.00
2019-05-22T09:28:26.265Z,13364.00
2019-05-22T09:29:26.314Z,14320.00
2019-05-22T09:30:26.759Z,15416.00
2019-05-22T09:31:26.388Z,14400.00
2019-05-22T09:32:26.626Z,15112.00
2019-05-22T09:33:26.460Z,15288.00
2019-05-22T09:35:26.517Z,15956.00
2019-05-22T09:36:26.770Z,16156.00
2019-05-22T09:37:26.610Z,16020.00
2019-05-22T09:38:26.621Z,15768.00
2019-05-22T09:39:26.677Z,15472.00
2019-05-22T09:42:26.789Z,17920.00
2019-05-22T09:43:28.240Z,13852.00
2019-05-22T09:53:27.158Z,14896.00
2019-05-22T09:54:27.196Z,13760.00
2019-05-22T09:55:27.231Z,18464.00
2019-05-22T09:56:27.275Z,20352.00
2019-05-22T09:57:27.304Z,17252.00
2019-05-22T09:58:27.342Z,20832.00
2019-05-22T09:59:27.379Z,14924.00
2019-05-22T10:00:27.414Z,14748.00
2019-05-22T10:01:27.452Z,13768.00
2019-05-22T10:02:27.488Z,14036.00
2019-05-22T10:03:27.551Z,19776.00
2019-05-22T10:04:27.560Z,19872.00
2019-05-22T10:05:27.599Z,19232.00
2019-05-22T10:06:27.634Z,18976.00
2019-05-22T10:07:27.696Z,18944.00
2019-05-22T10:08:27.735Z,19200.00
2019-05-22T10:09:27.748Z,19520.00
2019-05-22T10:10:27.786Z,19584.00
2019-05-22T10:11:27.818Z,19744.00
2019-05-22T10:12:27.855Z,19936.00
2019-05-22T10:13:29.277Z,20608.00
2019-05-22T10:14:27.956Z,20960.00
2019-05-22T10:15:28.470Z,21792.00
2019-05-22T10:16:28.030Z,23072.00
2019-05-22T10:18:28.100Z,25792.00
2019-05-22T10:19:28.119Z,28480.00
2019-05-22T10:20:28.153Z,22272.00
2019-05-22T10:21:28.190Z,18528.00
2019-05-22T10:22:28.659Z,17984.00
2019-05-22T10:23:28.266Z,17792.00
2019-05-22T10:24:28.306Z,18112.00
2019-05-22T10:25:28.342Z,48544.00
2019-05-22T10:26:28.398Z,34432.00
2019-05-22T10:27:28.421Z,15892.00
2019-05-22T10:28:28.456Z,14928.00
2019-05-22T10:29:31.961Z,14628.00
2019-05-22T10:30:28.531Z,14912.00
2019-05-22T10:31:28.570Z,15508.00
2019-05-22T10:32:31.951Z,16608.00
2019-05-22T10:33:28.649Z,17184.00
2019-05-22T10:34:28.694Z,17664.00
2019-05-22T10:35:28.723Z,19456.00
2019-05-22T10:36:28.792Z,20128.00
2019-05-22T10:37:28.798Z,117760.00
2019-05-22T10:38:28.836Z,115104.00
2019-05-22T10:39:28.874Z,121472.00
2019-05-22T10:40:28.916Z,126304.00
2019-05-22T10:41:28.955Z,125984.00
2019-05-22T10:42:28.992Z,120800.00
2019-05-22T10:43:31.663Z,24096.00
2019-05-22T10:44:29.074Z,25280.00
2019-05-22T10:45:29.112Z,25344.00
2019-05-22T10:46:29.153Z,26144.00
2019-05-22T10:47:29.252Z,121152.00
2019-05-22T10:48:29.239Z,85312.00
2019-05-22T10:49:29.283Z,44416.00
2019-05-22T10:50:29.649Z,48512.00
2019-05-22T10:51:29.360Z,49024.00
2019-05-22T10:52:29.410Z,99200.00
2019-05-22T10:53:33.631Z,102944.00
2019-05-22T10:54:29.486Z,116512.00
2019-05-22T10:55:29.529Z,114752.00
2019-05-22T10:56:29.615Z,118176.00
2019-05-22T10:57:29.617Z,123296.00
2019-05-22T10:58:29.663Z,125408.00
2019-05-22T10:59:29.724Z,128928.00
2019-05-22T11:00:29.753Z,128512.00
2019-05-22T11:01:29.794Z,25472.00
2019-05-22T11:02:29.841Z,23680.00
2019-05-22T11:03:29.899Z,28384.00
2019-05-22T11:04:29.937Z,33024.00
2019-05-22T11:05:29.978Z,21216.00
2019-05-22T11:06:30.024Z,20032.00
2019-05-22T11:07:30.071Z,20320.00
2019-05-22T11:08:34.202Z,23520.00
2019-05-22T11:09:30.160Z,30144.00
2019-05-22T11:10:30.205Z,29280.00
2019-05-22T11:11:30.250Z,21312.00
2019-05-22T11:12:30.307Z,21216.00
2019-05-22T11:13:34.019Z,21888.00
2019-05-22T11:14:30.382Z,23328.00
2019-05-22T11:15:30.455Z,24960.00
2019-05-22T11:16:30.465Z,32224.00
2019-05-22T11:17:30.509Z,40416.00
2019-05-22T11:18:30.552Z,31296.00
2019-05-22T11:19:30.595Z,37216.00
2019-05-22T11:20:30.636Z,138976.00
2019-05-22T11:21:30.678Z,136064.00
2019-05-22T11:22:30.722Z,61760.00
2019-05-22T11:23:30.767Z,123808.00
2019-05-22T11:24:30.805Z,121504.00
2019-05-22T11:25:30.850Z,118752.00
2019-05-22T11:26:30.890Z,122336.00
2019-05-22T11:27:30.960Z,117824.00
2019-05-22T11:28:30.996Z,110336.00
2019-05-22T11:29:31.026Z,119520.00
2019-05-22T11:30:31.066Z,120768.00
2019-05-22T11:31:31.115Z,122848.00
2019-05-22T11:32:31.157Z,24160.00
2019-05-22T11:33:34.233Z,21728.00
2019-05-22T11:34:31.450Z,21216.00
2019-05-22T11:35:31.298Z,21280.00
2019-05-22T11:36:31.367Z,21664.00
2019-05-22T11:37:31.396Z,27968.00
2019-05-22T11:38:31.429Z,27936.00
2019-05-22T11:39:39.529Z,94432.00
2019-05-22T11:40:31.517Z,117088.00
2019-05-22T11:41:31.564Z,129696.00
2019-05-22T11:42:31.611Z,131776.00
2019-05-22T11:43:31.652Z,92224.00
2019-05-22T11:44:31.696Z,37152.00
2019-05-22T11:45:31.746Z,47232.00
2019-05-22T11:46:31.788Z,96608.00
2019-05-22T11:47:31.834Z,135136.00
2019-05-22T11:48:31.879Z,130272.00
2019-05-22T11:49:31.931Z,129536.00
2019-05-22T11:50:31.972Z,124224.00
2019-05-22T11:51:32.014Z,124160.00
2019-05-22T11:52:32.065Z,126848.00
2019-05-22T11:53:32.106Z,127840.00
2019-05-22T11:54:32.154Z,125312.00
2019-05-22T11:55:44.022Z,125600.00
2019-05-22T11:56:32.247Z,126176.00
2019-05-22T11:57:32.295Z,129696.00
2019-05-22T11:58:32.360Z,122016.00
2019-05-22T11:59:32.392Z,104544.00
2019-05-22T12:00:32.450Z,114656.00
2019-05-22T12:02:32.762Z,128864.00
2019-05-22T12:03:32.592Z,126592.00
2019-05-22T12:04:47.297Z,133856.00
2019-05-22T12:05:32.685Z,135968.00
2019-05-22T12:06:32.961Z,32000.00
2019-05-22T12:07:32.785Z,131200.00
2019-05-22T12:08:32.834Z,133056.00
2019-05-22T12:09:32.887Z,128352.00
2019-05-22T12:10:32.956Z,129600.00
2019-05-22T12:11:32.985Z,106528.00
2019-05-22T12:12:35.245Z,138368.00
2019-05-22T12:13:33.083Z,129216.00
2019-05-22T12:14:33.133Z,34240.00
2019-05-22T12:15:33.189Z,46688.00
2019-05-22T12:16:33.233Z,139104.00
2019-05-22T12:17:38.138Z,131872.00
2019-05-22T12:19:33.382Z,136256.00
2019-05-22T12:20:33.655Z,137856.00
2019-05-22T12:21:33.484Z,23552.00
2019-05-22T12:22:33.531Z,20864.00
2019-05-22T12:23:33.582Z,104032.00
2019-05-22T12:24:37.102Z,124928.00
2019-05-22T12:25:33.679Z,131520.00
2019-05-22T12:26:33.729Z,134208.00
2019-05-22T12:27:33.793Z,135808.00
2019-05-22T12:28:33.827Z,133856.00
2019-05-22T12:29:33.896Z,130848.00
2019-05-22T12:30:33.926Z,134624.00
2019-05-22T12:31:33.974Z,30848.00
2019-05-22T12:32:34.027Z,28864.00
2019-05-22T12:33:34.073Z,32288.00
2019-05-22T12:34:34.124Z,111712.00
2019-05-22T12:35:34.176Z,120224.00
2019-05-22T12:36:34.225Z,48288.00
2019-05-22T12:37:34.363Z,124224.00
2019-05-22T12:38:34.368Z,113152.00
2019-05-22T12:39:34.375Z,25344.00
2019-05-22T12:40:34.436Z,35008.00
2019-05-22T12:41:34.462Z,126144.00
2019-05-22T12:42:34.512Z,121696.00
2019-05-22T12:43:34.559Z,37536.00
2019-05-22T12:44:34.606Z,29536.00
2019-05-22T12:45:34.659Z,41824.00
2019-05-22T12:46:34.726Z,103168.00
2019-05-22T12:47:34.956Z,108896.00
2019-05-22T12:48:34.800Z,119072.00
2019-05-22T12:50:17.834Z,113504.00
2019-05-22T12:51:17.477Z,113600.00
2019-05-22T12:52:17.504Z,106336.00
2019-05-22T12:53:17.555Z,104064.00
2019-05-22T12:54:17.596Z,113696.00
2019-05-22T12:55:17.649Z,112800.00
2019-05-22T12:56:17.696Z,105088.00
2019-05-22T12:57:17.739Z,101152.00
2019-05-22T12:58:17.789Z,97248.00
2019-05-22T12:59:17.839Z,95936.00
2019-05-22T13:00:17.886Z,96320.00
2019-05-22T13:01:17.932Z,95296.00
2019-05-22T13:02:17.980Z,88864.00
2019-05-22T13:03:18.043Z,89600.00
2019-05-22T13:04:18.089Z,87744.00
2019-05-22T13:05:18.193Z,83232.00
2019-05-22T13:06:18.177Z,84224.00
2019-05-22T13:07:18.225Z,80064.00
2019-05-22T13:08:18.283Z,79904.00
2019-05-22T13:09:18.328Z,80128.00
2019-05-22T13:10:18.368Z,77888.00
2019-05-22T13:11:18.417Z,41024.00
2019-05-22T13:12:18.465Z,31744.00
2019-05-22T13:13:18.512Z,38272.00
2019-05-22T13:14:18.560Z,83072.00
2019-05-22T13:15:19.546Z,45888.00
2019-05-22T13:16:18.680Z,55136.00
2019-05-22T13:17:18.709Z,81088.00
2019-05-22T13:18:18.749Z,75200.00
2019-05-22T13:19:18.798Z,80160.00
2019-05-22T13:20:18.845Z,76704.00
2019-05-22T13:21:18.909Z,84160.00
2019-05-22T13:23:18.981Z,84800.00
2019-05-22T13:24:19.063Z,91104.00
2019-05-22T13:25:19.100Z,85984.00
2019-05-22T13:26:19.119Z,83008.00
2019-05-22T13:28:19.233Z,76448.00
2019-05-22T13:30:19.327Z,79136.00
2019-05-22T13:31:19.352Z,87456.00
2019-05-22T13:32:19.397Z,97696.00
2019-05-22T13:33:19.440Z,104512.00
2019-05-22T13:34:19.487Z,104576.00
2019-05-22T13:35:19.533Z,105216.00
2019-05-22T13:36:19.582Z,102528.00
2019-05-22T13:38:20.685Z,95584.00
2019-05-22T13:39:19.718Z,96320.00
2019-05-22T13:40:27.630Z,100544.00
2019-05-22T13:41:19.811Z,94976.00
2019-05-22T13:42:19.857Z,100576.00
2019-05-22T13:43:19.909Z,120736.00
2019-05-22T13:44:19.953Z,120160.00
2019-05-22T13:45:29.125Z,119136.00
2019-05-22T13:46:20.071Z,112544.00
2019-05-22T13:47:21.034Z,113504.00
2019-05-22T13:48:20.151Z,112704.00
2019-05-22T13:49:20.189Z,103840.00
2019-05-22T13:51:20.286Z,98048.00
2019-05-22T13:52:20.332Z,102208.00
2019-05-22T13:53:20.380Z,98176.00
2019-05-22T13:54:20.458Z,101728.00
2019-05-22T13:55:20.477Z,107520.00
2019-05-22T13:56:20.536Z,112192.00
2019-05-22T13:57:20.571Z,112704.00
2019-05-22T13:58:20.621Z,108000.00
2019-05-22T13:59:20.670Z,113408.00
2019-05-22T14:00:20.718Z,116192.00
2019-05-22T14:01:20.765Z,112032.00
2019-05-22T14:02:20.815Z,107392.00
2019-05-22T14:03:20.866Z,101632.00
2019-05-22T14:04:20.911Z,114912.00
2019-05-22T14:05:20.960Z,113856.00
2019-05-22T14:06:21.009Z,115712.00
2019-05-22T14:07:21.058Z,116416.00
2019-05-22T14:08:21.109Z,117792.00
2019-05-22T14:09:21.760Z,111840.00
2019-05-22T14:10:21.204Z,104096.00
2019-05-22T14:11:21.252Z,98432.00
2019-05-22T14:12:21.301Z,92032.00
2019-05-22T14:13:21.350Z,96608.00
2019-05-22T14:14:21.399Z,84288.00
2019-05-22T14:15:21.447Z,90624.00
2019-05-22T14:16:21.522Z,94560.00
2019-05-22T14:17:21.546Z,93216.00
2019-05-22T14:18:21.595Z,86752.00
2019-05-22T14:19:21.641Z,92544.00
2019-05-22T14:20:21.693Z,90144.00
2019-05-22T14:21:21.742Z,91712.00
2019-05-22T14:22:21.788Z,106944.00
2019-05-22T14:23:21.854Z,114432.00
2019-05-22T14:24:21.928Z,113056.00
2019-05-22T14:25:21.936Z,110656.00
2019-05-22T14:26:22.048Z,109952.00
2019-05-22T14:27:22.035Z,110752.00
2019-05-22T14:28:22.084Z,108352.00
2019-05-22T14:29:22.131Z,108320.00
2019-05-22T14:30:22.181Z,108320.00
2019-05-22T14:31:22.231Z,104640.00
2019-05-22T14:32:30.095Z,98688.00
2019-05-22T14:33:22.331Z,93408.00
2019-05-22T14:34:22.379Z,97088.00
2019-05-22T14:35:22.428Z,92736.00
2019-05-22T14:36:22.478Z,16972.00
2019-05-22T14:37:22.529Z,21152.00
2019-05-22T14:38:22.576Z,29952.00
2019-05-22T14:39:22.627Z,57664.00
2019-05-22T14:40:22.676Z,19008.00
2019-05-22T14:41:22.725Z,18080.00
2019-05-22T14:42:22.772Z,21984.00
2019-05-22T14:43:22.821Z,76832.00
2019-05-22T14:44:22.867Z,102080.00
2019-05-22T14:45:22.937Z,99712.00
2019-05-22T14:46:23.030Z,91648.00
2019-05-22T14:47:23.041Z,94144.00
2019-05-22T14:48:23.157Z,91456.00
2019-05-22T14:49:23.528Z,87584.00
2019-05-22T14:50:23.857Z,89024.00
2019-05-22T14:51:23.932Z,89088.00
2019-05-22T14:52:23.263Z,90016.00
2019-05-22T14:53:23.288Z,62496.00
2019-05-22T14:54:24.046Z,88992.00
2019-05-22T14:55:23.384Z,93376.00
2019-05-22T14:56:23.429Z,92800.00
2019-05-22T14:57:23.477Z,90688.00
2019-05-22T14:58:23.524Z,91296.00
2019-05-22T14:59:23.572Z,87968.00
2019-05-22T15:00:23.627Z,87616.00
2019-05-22T15:01:23.670Z,78240.00
2019-05-22T15:02:23.744Z,44288.00
2019-05-22T15:03:23.763Z,74720.00